Saturday, January 19, 2019, 7:48 PM EST
Back to Local

KDOV, Dover Air Force Base

Location: Dover, DE, United States Lat: 39.133
Local Time: 7:48 PM EST ( 0:48 GMT) Lon: -75.467
Time Zone: US/Eastern Elev: 29 ft

Show me the last for .
Show Coded

Time T Td Feel RH Dir Speed Gust Alt SLP Vis Weather Sky Remarks
2019-01-19 19:20 41 37 33 86 90° 15 - 29.91 29.92 10 OVC037 Pressure falling rapidly
2019-01-19 19:09 41 37 34 86 90° 12 - 29.93 29.94 10 -RA BKN039 BKN060 None
2019-01-19 18:56 40 37 33 89 80° 13 - 29.94 29.95 10 BKN043 OVC060 6-hr Min Temp (7pm): 37.8°F
6-hr Max Temp (7pm): 40.1°F
2019-01-19 17:56 40 36 33 86 70° 13 - 29.98 29.99 10 OVC049 None
2019-01-19 17:16 39 36 32 86 70° 10 - 30.01 30.02 10 SCT019 OVC048 None
2019-01-19 16:56 40 36 33 84 70° 10 - 30.02 30.03 10 OVC020 None
2019-01-19 15:56 40 35 34 83 80° 8 - 30.07 30.08 10 OVC022 None
2019-01-19 14:56 39 33 32 79 90° 10 - 30.07 30.08 10 OVC022 None
2019-01-19 13:56 38 31 30 76 80° 13 - 30.10 30.11 10 OVC050 Pressure falling rapidly
2019-01-19 12:56 38 30 31 73 70° 9 - 30.16 30.17 10 OVC050 6-hr Min Temp (1pm): 34.9°F
6-hr Max Temp (1pm): 37.9°F
2019-01-19 11:56 37 30 30 73 70° 12 - 30.19 30.20 10 OVC050 None
2019-01-19 10:56 37 29 30 71 60° 10 - 30.23 - 10 OVC049 None
2019-01-19 09:56 37 27 29 67 60° 10 - 30.25 - 10 OVC050 None
2019-01-19 08:56 36 27 27 68 70° 14 - 30.23 - 10 OVC049 None
2019-01-19 07:56 35 30 29 82 90° 8 - 30.22 - 10 OVC049 None
2019-01-19 06:56 35 30 31 81 80° 5 - 30.20 - 10 OVC050 6-hr Min Temp (7am): 30.2°F
6-hr Max Temp (7am): 35.1°F
2019-01-19 05:56 34 31 - 87 - Calm - 30.20 30.21 9 OVC050 None
2019-01-19 04:56 33 30 - 87 - Calm - 30.19 30.20 8 OVC050 None
2019-01-19 03:56 33 31 - 90 - Calm - 30.20 30.21 8 OVC050 None
2019-01-19 02:56 34 32 - 93 - Calm - 30.21 30.22 7 OVC050 None
2019-01-19 01:56 32 31 27 95 340° 5 - 30.21 30.22 6 BR OVC050 None
2019-01-19 00:56 33 31 30 92 320° 3 - 30.20 30.21 5 BR FEW050 6-hr Min Temp (1am): 32.5°F
6-hr Max Temp (1am): 35.6°F
2019-01-18 23:56 34 32 - 91 - Calm - 30.20 30.21 6 BR OVC050 24-hr Min Temp (12am): 32.2°F
24-hr Max Temp (12am): 40.5°F
2019-01-18 22:56 35 33 32 91 300° 3 - 30.20 30.21 8 OVC055 None
2019-01-18 21:56 35 33 31 91 280° 5 - 30.19 30.20 8 OVC055 None
2019-01-18 20:56 34 32 31 93 270° 3 - 30.18 30.19 8 OVC055 None
2019-01-18 19:56 34 31 31 89 250° 3 - 30.17 30.18 10 CLR None

Support USWX by starting your Amazon purchase here.